Time;durP1;ratioP1;P1;durP2;ratioP2;P2;SDS_P1;SDS_P2;PMS_P1;PMS_P2;Temp;Humidity;BMP_temperature;BMP_pressure;BME280_temperature;BME280_humidity;BME280_pressure;Samples;Min_cycle;Max_cycle;Signal;HPM_P1;HPM_P2
2021/11/07 00:00:29;;;;;;;101.50;27.67;;;;;;;;;;6316386;22;20422;-94
2021/11/07 00:03:03;;;;;;;101.37;28.63;;;;;;;;;;6315869;22;20398;-94
2021/11/07 00:05:33;;;;;;;97.30;27.23;;;;;;;;;;6317253;22;20459;-94
2021/11/07 00:08:22;;;;;;;91.80;27.03;;;;;;;;;;6315800;22;20430;-94
2021/11/07 00:10:50;;;;;;;98.47;28.27;;;;;;;;;;6315117;22;20476;-94
2021/11/07 00:13:20;;;;;;;94.73;27.23;;;;;;;;;;6315415;22;20406;-94
2021/11/07 00:15:48;;;;;;;94.77;27.47;;;;;;;;;;6315855;22;20420;-95
2021/11/07 00:18:17;;;;;;;98.07;29.07;;;;;;;;;;6315958;22;20406;-94
2021/11/07 00:20:52;;;;;;;105.53;28.27;;;;;;;;;;6316567;22;20415;-94
2021/11/07 00:26:15;;;;;;;99.57;25.50;;;;;;;;;;6277635;22;20462;-95
2021/11/07 00:28:45;;;;;;;96.90;28.43;;;;;;;;;;6315969;22;20406;-95
2021/11/07 00:31:21;;;;;;;97.70;27.77;;;;;;;;;;6315913;22;20423;-95
2021/11/07 00:34:29;;;;;;;94.60;25.30;;;;;;;;;;6317224;22;20404;-94
2021/11/07 00:36:57;;;;;;;90.83;26.33;;;;;;;;;;6316949;22;20452;-93
2021/11/07 00:39:29;;;;;;;95.60;26.17;;;;;;;;;;6316997;22;20424;-94
2021/11/07 00:42:03;;;;;;;94.63;24.20;;;;;;;;;;6316786;22;20413;-94
2021/11/07 00:44:33;;;;;;;86.67;23.13;;;;;;;;;;6316471;22;20414;-94
2021/11/07 00:47:11;;;;;;;92.23;23.57;;;;;;;;;;6316443;22;20464;-94
2021/11/07 00:49:41;;;;;;;93.23;24.77;;;;;;;;;;6317160;22;20444;-94
2021/11/07 00:52:18;;;;;;;95.13;24.40;;;;;;;;;;6317644;22;20475;-95
2021/11/07 00:54:52;;;;;;;100.80;26.00;;;;;;;;;;6316497;22;20469;-94
2021/11/07 00:57:22;;;;;;;91.80;25.20;;;;;;;;;;6317436;22;20449;-95
2021/11/07 00:59:54;;;;;;;92.67;24.53;;;;;;;;;;6318272;22;20407;-94
2021/11/07 01:02:23;;;;;;;89.70;25.10;;;;;;;;;;6318580;22;20409;-95
2021/11/07 01:04:50;;;;;;;94.60;25.90;;;;;;;;;;6327730;22;20453;-95
2021/11/07 01:07:17;;;;;;;97.33;25.43;;;;;;;;;;6326528;22;20409;-95
2021/11/07 01:09:44;;;;;;;90.97;26.10;;;;;;;;;;6316625;22;20411;-94
2021/11/07 01:12:11;;;;;;;88.97;24.13;;;;;;;;;;6316944;22;20962;-94
2021/11/07 01:14:38;;;;;;;100.70;25.20;;;;;;;;;;6316716;22;20417;-94
2021/11/07 01:17:05;;;;;;;108.20;30.07;;;;;;;;;;6316714;22;20428;-94
2021/11/07 01:19:33;;;;;;;97.73;27.67;;;;;;;;;;6316757;22;20408;-94
2021/11/07 01:22:02;;;;;;;97.33;25.50;;;;;;;;;;6317186;22;20417;-94
2021/11/07 01:24:32;;;;;;;90.00;23.10;;;;;;;;;;6317452;22;20444;-95
2021/11/07 01:27:09;;;;;;;93.90;25.23;;;;;;;;;;6315783;22;20461;-96
2021/11/07 01:29:40;;;;;;;95.90;26.93;;;;;;;;;;6317280;22;20410;-95
2021/11/07 01:32:07;;;;;;;99.70;25.50;;;;;;;;;;6317258;22;20418;-94
2021/11/07 01:34:47;;;;;;;96.07;26.37;;;;;;;;;;6315091;22;20411;-94
2021/11/07 01:37:16;;;;;;;93.67;28.57;;;;;;;;;;6314521;22;20414;-95
2021/11/07 01:39:48;;;;;;;90.30;25.07;;;;;;;;;;6316959;22;20403;-95
2021/11/07 01:42:19;;;;;;;91.40;24.03;;;;;;;;;;6317491;22;20497;-94
2021/11/07 01:44:50;;;;;;;94.83;24.77;;;;;;;;;;6316723;22;20401;-94
2021/11/07 01:47:17;;;;;;;96.07;23.10;;;;;;;;;;6315189;22;20507;-95
2021/11/07 01:49:46;;;;;;;94.77;24.73;;;;;;;;;;6314828;22;20419;-94
2021/11/07 01:52:13;;;;;;;99.70;28.33;;;;;;;;;;6312657;22;20408;-95
2021/11/07 01:54:49;;;;;;;98.80;28.07;;;;;;;;;;6314872;22;20409;-95
2021/11/07 01:57:16;;;;;;;99.73;28.60;;;;;;;;;;6315714;22;20416;-94
2021/11/07 01:59:44;;;;;;;89.77;24.13;;;;;;;;;;6314488;22;20413;-95
2021/11/07 02:02:13;;;;;;;91.40;25.57;;;;;;;;;;6314296;22;20405;-95
2021/11/07 02:04:39;;;;;;;90.37;24.23;;;;;;;;;;6319468;22;20414;-95
2021/11/07 02:07:08;;;;;;;96.57;27.10;;;;;;;;;;6316980;22;20445;-96
2021/11/07 02:09:34;;;;;;;99.37;25.30;;;;;;;;;;6315587;22;20410;-94
2021/11/07 02:12:01;;;;;;;101.77;30.50;;;;;;;;;;6314475;22;20411;-94
2021/11/07 02:14:27;;;;;;;102.87;28.97;;;;;;;;;;6316482;22;20494;-94
2021/11/07 02:16:54;;;;;;;98.37;26.70;;;;;;;;;;6316389;22;20403;-94
2021/11/07 02:19:20;;;;;;;104.37;28.40;;;;;;;;;;6314381;22;20409;-94
2021/11/07 02:21:49;;;;;;;95.97;27.70;;;;;;;;;;6314295;22;20407;-95
2021/11/07 02:24:16;;;;;;;97.07;25.70;;;;;;;;;;6316136;22;20408;-95
2021/11/07 02:26:44;;;;;;;101.37;28.90;;;;;;;;;;6315550;22;20466;-94
2021/11/07 02:29:10;;;;;;;100.73;28.40;;;;;;;;;;6316045;22;20440;-94
2021/11/07 02:31:37;;;;;;;100.00;29.57;;;;;;;;;;6316020;22;20416;-93
2021/11/07 02:34:04;;;;;;;104.87;30.07;;;;;;;;;;6315951;22;20417;-94
2021/11/07 02:36:30;;;;;;;93.57;27.00;;;;;;;;;;6316250;22;20419;-95
2021/11/07 02:38:58;;;;;;;93.10;26.37;;;;;;;;;;6316005;22;20415;-95
2021/11/07 02:41:25;;;;;;;97.27;27.40;;;;;;;;;;6316592;22;20418;-94
2021/11/07 02:43:53;;;;;;;97.37;27.70;;;;;;;;;;6315313;22;20406;-94
2021/11/07 02:46:20;;;;;;;97.53;26.47;;;;;;;;;;6314702;22;20445;-94
2021/11/07 02:48:48;;;;;;;100.00;27.57;;;;;;;;;;6314608;22;20411;-93
2021/11/07 02:51:15;;;;;;;91.07;26.40;;;;;;;;;;6314207;22;20894;-93
2021/11/07 02:53:42;;;;;;;100.67;25.80;;;;;;;;;;6314490;22;20419;-93
2021/11/07 02:56:10;;;;;;;101.63;28.40;;;;;;;;;;6314682;22;20448;-94
2021/11/07 02:58:37;;;;;;;96.20;29.07;;;;;;;;;;6314793;22;20413;-94
2021/11/07 03:01:04;;;;;;;101.10;27.57;;;;;;;;;;6316092;22;20416;-93
2021/11/07 03:03:31;;;;;;;93.33;27.87;;;;;;;;;;6315297;22;20428;-93
2021/11/07 03:06:00;;;;;;;106.20;29.87;;;;;;;;;;6315079;22;20505;-94
2021/11/07 03:08:27;;;;;;;98.30;28.93;;;;;;;;;;6323570;22;20428;-96
2021/11/07 03:10:54;;;;;;;97.03;25.73;;;;;;;;;;6316541;22;20421;-96
2021/11/07 03:13:22;;;;;;;98.07;28.73;;;;;;;;;;6315374;22;20394;-95
2021/11/07 03:15:48;;;;;;;98.47;29.60;;;;;;;;;;6314531;22;20417;-95
2021/11/07 03:18:15;;;;;;;101.07;31.53;;;;;;;;;;6315571;22;20445;-94
2021/11/07 03:20:41;;;;;;;106.97;30.50;;;;;;;;;;6316338;22;20414;-95
2021/11/07 03:23:08;;;;;;;100.10;27.90;;;;;;;;;;6315174;22;20799;-95
2021/11/07 03:25:45;;;;;;;98.17;27.47;;;;;;;;;;6313374;22;20419;-94
2021/11/07 03:28:11;;;;;;;96.53;26.60;;;;;;;;;;6315195;22;20897;-95
2021/11/07 03:30:49;;;;;;;92.70;25.20;;;;;;;;;;6317112;22;20405;-95
2021/11/07 03:33:22;;;;;;;94.37;26.60;;;;;;;;;;6317978;22;20415;-95
2021/11/07 03:35:49;;;;;;;104.63;26.00;;;;;;;;;;6317552;22;20446;-95
2021/11/07 03:38:15;;;;;;;92.27;26.03;;;;;;;;;;6326337;22;20482;-96
2021/11/07 03:40:42;;;;;;;94.90;26.43;;;;;;;;;;6322222;22;20422;-96
2021/11/07 03:43:09;;;;;;;93.40;26.00;;;;;;;;;;6315594;22;20413;-96
2021/11/07 03:45:37;;;;;;;88.50;25.00;;;;;;;;;;6315796;22;20410;-96
2021/11/07 03:48:23;;;;;;;94.03;25.00;;;;;;;;;;6317775;22;20494;-96
2021/11/07 03:50:50;;;;;;;91.30;25.50;;;;;;;;;;6320966;22;20405;-95
2021/11/07 03:55:52;;;;;;;94.90;26.53;;;;;;;;;;6224283;22;21151;-94
2021/11/07 03:58:19;;;;;;;98.57;26.70;;;;;;;;;;6223890;23;20498;-96
2021/11/07 04:00:45;;;;;;;101.67;27.87;;;;;;;;;;6223774;23;20431;-95
2021/11/07 04:03:13;;;;;;;93.93;28.07;;;;;;;;;;6222362;23;20404;-94
2021/11/07 04:05:40;;;;;;;99.50;27.00;;;;;;;;;;6220555;23;20416;-93
2021/11/07 04:08:07;;;;;;;92.47;25.93;;;;;;;;;;6221610;23;20419;-94
2021/11/07 04:10:36;;;;;;;96.80;25.40;;;;;;;;;;6223346;23;20467;-94
2021/11/07 04:13:05;;;;;;;88.67;24.90;;;;;;;;;;6225280;23;22126;-96
2021/11/07 04:15:31;;;;;;;97.90;29.00;;;;;;;;;;6225344;23;20420;-95
2021/11/07 04:17:58;;;;;;;96.17;27.37;;;;;;;;;;6224806;23;20413;-95
2021/11/07 04:20:27;;;;;;;92.30;26.17;;;;;;;;;;6225601;23;20412;-95
2021/11/07 04:22:54;;;;;;;100.80;28.70;;;;;;;;;;6224614;23;20416;-95
2021/11/07 04:25:20;;;;;;;104.00;30.33;;;;;;;;;;6223424;23;20434;-94
2021/11/07 04:27:49;;;;;;;97.47;28.87;;;;;;;;;;6223474;23;20459;-95
2021/11/07 04:41:47;;;;;;;100.20;28.80;;;;;;;;;;6271742;22;20453;-96
2021/11/07 04:44:14;;;;;;;100.03;30.30;;;;;;;;;;6317823;22;20433;-96
2021/11/07 04:46:41;;;;;;;104.77;30.33;;;;;;;;;;6316704;22;20443;-94
2021/11/07 04:49:08;;;;;;;106.03;30.60;;;;;;;;;;6315203;22;20413;-96
2021/11/07 04:57:45;;;;;;;101.53;30.90;;;;;;;;;;6320908;22;20410;-96
2021/11/07 05:00:19;;;;;;;100.17;29.57;;;;;;;;;;6322086;22;20424;-96
2021/11/07 05:03:04;;;;;;;102.80;27.77;;;;;;;;;;6322948;22;20838;-96
2021/11/07 05:05:56;;;;;;;98.00;28.97;;;;;;;;;;6329458;22;20415;-96
2021/11/07 05:55:26;;;;;;;118.40;36.33;;;;;;;;;;6324046;22;20404;-96
2021/11/07 06:32:33;;;;;;;110.90;34.10;;;;;;;;;;6294914;22;20414;-96
2021/11/07 06:35:06;;;;;;;109.27;33.87;;;;;;;;;;6314358;22;20441;-94
2021/11/07 06:40:29;;;;;;;107.47;30.10;;;;;;;;;;6243061;23;20423;-96
2021/11/07 06:43:08;;;;;;;99.43;31.93;;;;;;;;;;6252672;23;20433;-96
2021/11/07 06:45:34;;;;;;;104.70;33.37;;;;;;;;;;6316070;22;20406;-94
2021/11/07 06:48:03;;;;;;;107.50;33.17;;;;;;;;;;6315349;22;20451;-95
2021/11/07 06:50:29;;;;;;;107.70;32.90;;;;;;;;;;6315435;22;20415;-93
2021/11/07 06:52:56;;;;;;;106.33;32.87;;;;;;;;;;6314935;22;20496;-93
2021/11/07 06:55:22;;;;;;;105.10;31.43;;;;;;;;;;6314851;22;20403;-92
2021/11/07 06:57:49;;;;;;;111.67;36.07;;;;;;;;;;6315752;22;20466;-92
2021/11/07 07:00:18;;;;;;;115.53;37.87;;;;;;;;;;6314963;22;20415;-93
2021/11/07 07:02:46;;;;;;;110.43;37.10;;;;;;;;;;6314535;22;20468;-93
2021/11/07 07:05:16;;;;;;;112.23;35.77;;;;;;;;;;6314603;22;20407;-94
2021/11/07 07:07:45;;;;;;;111.57;37.13;;;;;;;;;;6314439;22;20452;-95
2021/11/07 07:10:17;;;;;;;113.47;35.40;;;;;;;;;;6315775;22;20465;-94
2021/11/07 07:15:40;;;;;;;109.73;35.03;;;;;;;;;;6326848;22;20411;-95
2021/11/07 07:18:16;;;;;;;110.80;34.53;;;;;;;;;;6321433;22;20422;-93
2021/11/07 07:20:52;;;;;;;122.80;42.33;;;;;;;;;;6313809;22;20420;-92
2021/11/07 07:23:38;;;;;;;125.53;42.57;;;;;;;;;;6316493;22;20414;-92
2021/11/07 07:31:59;;;;;;;122.53;45.40;;;;;;;;;;6197844;22;20562;-94
2021/11/07 07:34:26;;;;;;;127.07;45.00;;;;;;;;;;6314443;22;20426;-93
2021/11/07 07:36:54;;;;;;;125.73;45.67;;;;;;;;;;6315060;22;21222;-96
2021/11/07 07:39:30;;;;;;;128.17;46.20;;;;;;;;;;6313820;22;20418;-95
2021/11/07 07:41:59;;;;;;;170.30;66.47;;;;;;;;;;6318328;22;20431;-96
2021/11/07 07:44:26;;;;;;;155.67;60.07;;;;;;;;;;6321770;22;20432;-95
2021/11/07 07:46:52;;;;;;;140.37;51.40;;;;;;;;;;6316470;22;20454;-94
2021/11/07 07:49:19;;;;;;;128.73;44.80;;;;;;;;;;6316755;22;20739;-94
2021/11/07 07:51:47;;;;;;;121.03;39.23;;;;;;;;;;6317401;22;20404;-93
2021/11/07 07:54:14;;;;;;;130.67;42.40;;;;;;;;;;6317489;22;20416;-93
2021/11/07 07:56:43;;;;;;;118.30;42.37;;;;;;;;;;6317137;22;20407;-94
2021/11/07 07:59:11;;;;;;;117.07;39.40;;;;;;;;;;6316714;22;20416;-94
2021/11/07 08:01:41;;;;;;;137.30;48.60;;;;;;;;;;6316180;22;20448;-95
2021/11/07 08:04:16;;;;;;;124.10;42.53;;;;;;;;;;6316477;22;20407;-94
2021/11/07 08:06:42;;;;;;;114.03;36.73;;;;;;;;;;6315874;22;21104;-94
2021/11/07 08:09:09;;;;;;;116.63;40.33;;;;;;;;;;6316630;22;20400;-93
2021/11/07 08:11:39;;;;;;;116.33;40.10;;;;;;;;;;6316047;22;20408;-94
2021/11/07 08:14:06;;;;;;;117.43;42.63;;;;;;;;;;6315147;22;20404;-95
2021/11/07 08:16:34;;;;;;;126.23;43.90;;;;;;;;;;6316928;22;20434;-93
2021/11/07 08:19:01;;;;;;;125.03;45.00;;;;;;;;;;6314815;22;20412;-93
2021/11/07 08:21:30;;;;;;;127.97;46.67;;;;;;;;;;6319118;22;20410;-93
2021/11/07 08:23:57;;;;;;;121.13;44.03;;;;;;;;;;6315501;22;20468;-94
2021/11/07 08:26:34;;;;;;;116.07;37.27;;;;;;;;;;6316453;22;20423;-95
2021/11/07 08:37:33;;;;;;;115.13;39.45;;;;;;;;;;6276625;22;20453;-93
2021/11/07 09:06:02;;;;;;;114.27;43.17;;;;;;;;;;6279879;22;20419;-94
2021/11/07 09:08:29;;;;;;;111.20;38.33;;;;;;;;;;6284909;22;20454;-94
2021/11/07 09:11:02;;;;;;;110.87;37.60;;;;;;;;;;6288801;22;20423;-96
2021/11/07 09:13:29;;;;;;;114.63;38.80;;;;;;;;;;6258173;22;20413;-93
2021/11/07 09:15:58;;;;;;;113.40;39.70;;;;;;;;;;6285578;22;20428;-93
2021/11/07 09:18:33;;;;;;;122.97;40.70;;;;;;;;;;6287621;22;20409;-96
2021/11/07 09:21:27;;;;;;;128.97;46.07;;;;;;;;;;6307092;22;20474;-96
2021/11/07 09:24:29;;;;;;;133.70;49.77;;;;;;;;;;6350031;22;20470;-95
2021/11/07 09:26:56;;;;;;;147.70;55.87;;;;;;;;;;6347967;22;20419;-95
2021/11/07 09:45:48;;;;;;;98.97;33.00;;;;;;;;;;6213458;22;1432961;-95
2021/11/07 09:59:04;;;;;;;105.97;33.10;;;;;;;;;;6270242;23;20444;-96
2021/11/07 10:01:33;;;;;;;108.00;33.37;;;;;;;;;;6266848;22;20409;-96
2021/11/07 10:19:35;;;;;;;101.93;32.33;;;;;;;;;;6253511;22;20445;-91
2021/11/07 10:22:03;;;;;;;100.90;34.07;;;;;;;;;;6263969;23;20481;-92
2021/11/07 10:24:34;;;;;;;104.33;34.80;;;;;;;;;;6263827;23;20401;-90
2021/11/07 10:27:02;;;;;;;98.70;33.47;;;;;;;;;;6264643;23;20405;-93
2021/11/07 10:29:32;;;;;;;105.97;34.00;;;;;;;;;;6265565;23;20409;-93
2021/11/07 10:32:21;;;;;;;105.93;34.90;;;;;;;;;;6261171;23;20479;-92
2021/11/07 10:37:37;;;;;;;107.43;34.20;;;;;;;;;;6255382;23;20394;-93
2021/11/07 10:46:11;;;;;;;95.20;31.87;;;;;;;;;;6227555;23;20405;-96
2021/11/07 10:54:30;;;;;;;102.90;31.77;;;;;;;;;;6162005;23;20426;-95
2021/11/07 10:57:18;;;;;;;110.77;35.40;;;;;;;;;;6222441;23;20503;-91
2021/11/07 11:02:36;;;;;;;104.60;35.00;;;;;;;;;;6253752;22;20762;-93
2021/11/07 11:05:10;;;;;;;98.23;33.10;;;;;;;;;;6257094;23;20404;-96
2021/11/07 11:07:50;;;;;;;105.53;33.30;;;;;;;;;;6255764;23;20412;-93
2021/11/07 11:10:20;;;;;;;104.27;32.00;;;;;;;;;;6255239;23;20864;-95
2021/11/07 11:13:06;;;;;;;97.63;31.53;;;;;;;;;;6255420;23;20409;-92
2021/11/07 11:15:39;;;;;;;95.27;29.60;;;;;;;;;;6252315;23;20424;-94
2021/11/07 11:18:19;;;;;;;100.00;30.20;;;;;;;;;;6254742;23;20416;-93
2021/11/07 11:24:21;;;;;;;94.40;28.23;;;;;;;;;;6103411;23;20430;-94
2021/11/07 11:27:05;;;;;;;96.07;30.07;;;;;;;;;;6114096;23;20418;-91
2021/11/07 11:32:40;;;;;;;94.40;29.50;;;;;;;;;;6168130;23;20491;-95
2021/11/07 11:35:13;;;;;;;99.90;30.70;;;;;;;;;;6255675;23;20414;-95
2021/11/07 11:37:47;;;;;;;93.67;29.37;;;;;;;;;;6254833;23;20468;-95
2021/11/07 11:40:20;;;;;;;93.63;29.30;;;;;;;;;;6248371;23;20411;-93
2021/11/07 11:42:52;;;;;;;95.53;28.27;;;;;;;;;;6250171;23;20417;-94
2021/11/07 11:45:19;;;;;;;101.70;29.50;;;;;;;;;;6255784;23;20410;-94
2021/11/07 11:48:07;;;;;;;95.77;29.53;;;;;;;;;;6256954;23;20398;-95
2021/11/07 11:50:46;;;;;;;94.03;29.10;;;;;;;;;;6255173;23;20505;-95
2021/11/07 11:53:25;;;;;;;89.77;29.50;;;;;;;;;;6257475;22;20393;-93
2021/11/07 11:55:57;;;;;;;92.70;29.20;;;;;;;;;;6255018;23;20417;-95
2021/11/07 11:58:41;;;;;;;90.90;28.53;;;;;;;;;;6255144;23;20410;-94
2021/11/07 12:01:14;;;;;;;100.03;29.57;;;;;;;;;;6251396;23;20449;-94
2021/11/07 12:03:48;;;;;;;92.60;30.17;;;;;;;;;;6252670;23;20410;-94
2021/11/07 12:06:24;;;;;;;93.57;29.83;;;;;;;;;;6253922;23;20420;-94
2021/11/07 12:09:11;;;;;;;93.50;29.63;;;;;;;;;;6249367;23;20440;-95
2021/11/07 12:11:48;;;;;;;96.20;29.50;;;;;;;;;;6254020;23;20445;-92
2021/11/07 12:14:16;;;;;;;103.90;29.27;;;;;;;;;;6254854;23;20436;-94
2021/11/07 12:16:45;;;;;;;106.07;29.20;;;;;;;;;;6249605;23;20970;-93
2021/11/07 12:19:12;;;;;;;95.77;28.83;;;;;;;;;;6253605;23;20421;-93
2021/11/07 12:22:00;;;;;;;103.70;29.10;;;;;;;;;;6251636;23;20419;-95
2021/11/07 12:24:28;;;;;;;92.37;28.50;;;;;;;;;;6252067;23;20471;-93
2021/11/07 12:27:16;;;;;;;95.57;29.87;;;;;;;;;;6252902;23;20414;-92
2021/11/07 12:29:43;;;;;;;95.07;29.40;;;;;;;;;;6252180;23;20413;-92
2021/11/07 12:32:11;;;;;;;94.17;28.67;;;;;;;;;;6252718;23;20457;-94
2021/11/07 12:34:52;;;;;;;90.07;29.30;;;;;;;;;;6253571;23;20460;-96
2021/11/07 12:43:02;;;;;;;96.00;28.97;;;;;;;;;;6254446;23;20421;-95
2021/11/07 12:45:31;;;;;;;94.07;27.83;;;;;;;;;;6248968;23;20445;-96
2021/11/07 12:48:02;;;;;;;94.90;29.07;;;;;;;;;;6250764;23;20410;-96
2021/11/07 12:50:29;;;;;;;95.10;27.47;;;;;;;;;;6250588;23;20402;-96
2021/11/07 12:52:58;;;;;;;90.57;27.20;;;;;;;;;;6252755;23;20517;-95
2021/11/07 12:55:29;;;;;;;89.90;27.90;;;;;;;;;;6252369;23;20402;-96
2021/11/07 12:57:57;;;;;;;90.30;27.87;;;;;;;;;;6247631;23;20409;-95
2021/11/07 13:00:24;;;;;;;94.50;27.63;;;;;;;;;;6249544;23;20410;-95
2021/11/07 13:02:51;;;;;;;85.67;25.07;;;;;;;;;;6249459;23;20440;-94
2021/11/07 13:05:19;;;;;;;90.67;27.33;;;;;;;;;;6249043;23;20406;-94
2021/11/07 13:07:50;;;;;;;88.70;26.80;;;;;;;;;;6245245;23;20412;-94
2021/11/07 13:10:22;;;;;;;84.57;25.50;;;;;;;;;;6250371;23;20409;-95
2021/11/07 13:12:53;;;;;;;88.47;26.03;;;;;;;;;;6251416;23;20485;-95
2021/11/07 13:26:35;;;;;;;84.90;24.87;;;;;;;;;;6252911;23;20456;-94
2021/11/07 13:29:19;;;;;;;87.27;22.20;;;;;;;;;;6252574;23;20429;-96
2021/11/07 13:31:48;;;;;;;86.20;23.77;;;;;;;;;;6252137;23;20480;-95
2021/11/07 13:34:19;;;;;;;85.97;23.03;;;;;;;;;;6247602;23;20496;-94
2021/11/07 13:36:46;;;;;;;84.10;23.30;;;;;;;;;;6247486;23;20436;-95
2021/11/07 13:39:21;;;;;;;83.03;22.73;;;;;;;;;;6252110;23;20485;-95
2021/11/07 13:41:51;;;;;;;90.17;23.03;;;;;;;;;;6252117;23;20785;-96
2021/11/07 13:44:22;;;;;;;89.10;22.50;;;;;;;;;;6250285;23;20406;-94
2021/11/07 13:46:50;;;;;;;84.77;22.67;;;;;;;;;;6252044;23;20441;-96
2021/11/07 13:49:18;;;;;;;89.40;22.93;;;;;;;;;;6252568;23;20409;-94
2021/11/07 13:51:51;;;;;;;81.70;23.20;;;;;;;;;;6252200;23;20438;-96
2021/11/07 13:54:17;;;;;;;85.97;23.40;;;;;;;;;;6252477;23;20420;-94
2021/11/07 13:56:44;;;;;;;84.23;22.33;;;;;;;;;;6252945;23;20414;-95
2021/11/07 13:59:11;;;;;;;83.77;23.80;;;;;;;;;;6252662;23;20990;-95
2021/11/07 14:01:38;;;;;;;88.80;22.63;;;;;;;;;;6252345;23;20428;-95
2021/11/07 14:04:04;;;;;;;81.03;23.13;;;;;;;;;;6252109;23;20414;-95
2021/11/07 14:06:36;;;;;;;82.40;23.37;;;;;;;;;;6253075;23;20410;-93
2021/11/07 14:09:04;;;;;;;86.30;23.23;;;;;;;;;;6252475;23;20417;-94
2021/11/07 14:11:33;;;;;;;86.40;22.87;;;;;;;;;;6249878;23;20402;-94
2021/11/07 14:14:01;;;;;;;94.70;26.90;;;;;;;;;;6251209;23;20420;-96
2021/11/07 14:16:30;;;;;;;89.30;25.53;;;;;;;;;;6251750;23;20496;-96
2021/11/07 14:18:56;;;;;;;88.70;27.73;;;;;;;;;;6254068;23;20474;-95
2021/11/07 14:21:26;;;;;;;96.40;27.67;;;;;;;;;;6252390;23;20410;-94
2021/11/07 14:24:04;;;;;;;97.83;29.37;;;;;;;;;;6256050;23;20420;-95
2021/11/07 14:26:41;;;;;;;93.33;26.43;;;;;;;;;;6264908;22;20399;-95
2021/11/07 14:29:22;;;;;;;90.13;26.27;;;;;;;;;;6269028;22;20420;-96
2021/11/07 14:32:05;;;;;;;90.03;25.53;;;;;;;;;;6255751;23;20441;-96
2021/11/07 14:34:37;;;;;;;81.60;23.73;;;;;;;;;;6251424;23;20487;-95
2021/11/07 14:37:06;;;;;;;100.20;33.63;;;;;;;;;;6250317;23;20931;-96
2021/11/07 14:39:40;;;;;;;103.13;32.80;;;;;;;;;;6254095;23;20413;-95
2021/11/07 14:42:18;;;;;;;93.73;25.90;;;;;;;;;;6253496;23;20462;-95
2021/11/07 14:53:50;;;;;;;86.33;21.73;;;;;;;;;;6255466;23;20453;-96
2021/11/07 14:56:24;;;;;;;83.53;23.07;;;;;;;;;;6254394;23;20431;-95
2021/11/07 15:01:37;;;;;;;98.33;28.77;;;;;;;;;;6252191;23;20490;-96
2021/11/07 15:04:12;;;;;;;94.43;24.77;;;;;;;;;;6255764;23;20419;-96
2021/11/07 15:06:55;;;;;;;90.50;24.10;;;;;;;;;;6252899;23;20433;-94
2021/11/07 15:09:27;;;;;;;85.37;22.03;;;;;;;;;;6253562;23;20478;-95
2021/11/07 15:12:13;;;;;;;83.97;23.17;;;;;;;;;;6251305;23;20449;-94
2021/11/07 15:14:48;;;;;;;88.17;20.90;;;;;;;;;;6249067;23;20416;-93
2021/11/07 15:17:30;;;;;;;81.87;20.93;;;;;;;;;;6249573;23;20407;-94
2021/11/07 15:20:13;;;;;;;91.27;21.53;;;;;;;;;;6251994;23;20474;-94
2021/11/07 15:22:42;;;;;;;85.93;20.77;;;;;;;;;;6253190;23;20411;-93
2021/11/07 15:25:18;;;;;;;79.40;21.20;;;;;;;;;;6251217;23;20467;-94
2021/11/07 15:28:03;;;;;;;86.67;22.40;;;;;;;;;;6252801;23;20418;-95
2021/11/07 15:30:35;;;;;;;86.57;21.87;;;;;;;;;;6225185;23;20446;-94
2021/11/07 15:33:08;;;;;;;84.27;22.23;;;;;;;;;;6251227;23;20525;-93
2021/11/07 15:35:35;;;;;;;88.70;22.07;;;;;;;;;;6255450;23;20406;-92
2021/11/07 15:38:11;;;;;;;87.70;22.70;;;;;;;;;;6251888;23;20412;-94
2021/11/07 15:40:39;;;;;;;84.03;21.30;;;;;;;;;;6252380;23;20470;-96
2021/11/07 15:46:02;;;;;;;90.00;24.13;;;;;;;;;;6267214;22;20430;-96
2021/11/07 15:48:33;;;;;;;98.70;25.70;;;;;;;;;;6252041;23;20410;-94
2021/11/07 15:51:07;;;;;;;95.57;29.10;;;;;;;;;;6252589;23;20434;-94
2021/11/07 15:53:44;;;;;;;102.50;31.23;;;;;;;;;;6252646;23;20508;-94
2021/11/07 15:56:17;;;;;;;92.20;24.90;;;;;;;;;;6252975;23;20402;-94
2021/11/07 15:59:01;;;;;;;98.43;27.47;;;;;;;;;;6252629;23;20421;-95
2021/11/07 16:01:34;;;;;;;94.63;26.83;;;;;;;;;;6252970;23;20406;-94
2021/11/07 16:04:07;;;;;;;85.37;23.73;;;;;;;;;;6252691;23;20402;-93
2021/11/07 16:06:51;;;;;;;88.83;26.60;;;;;;;;;;6252948;23;20414;-93
2021/11/07 16:09:28;;;;;;;101.03;29.63;;;;;;;;;;6252481;23;20417;-93
2021/11/07 16:12:04;;;;;;;90.17;24.60;;;;;;;;;;6251600;23;20481;-96
2021/11/07 16:17:15;;;;;;;89.50;24.90;;;;;;;;;;6248712;23;20405;-95
2021/11/07 16:19:44;;;;;;;90.20;22.80;;;;;;;;;;6251823;23;20398;-96
2021/11/07 16:22:10;;;;;;;83.20;22.60;;;;;;;;;;6252599;23;20422;-92
2021/11/07 16:24:37;;;;;;;84.30;22.10;;;;;;;;;;6251645;23;20398;-95
2021/11/07 16:27:05;;;;;;;84.70;23.10;;;;;;;;;;6250225;23;20418;-95
2021/11/07 16:29:32;;;;;;;90.80;24.93;;;;;;;;;;6253367;23;20406;-96
2021/11/07 16:32:07;;;;;;;89.70;23.77;;;;;;;;;;6252299;23;20413;-95
2021/11/07 16:34:41;;;;;;;88.37;23.53;;;;;;;;;;6252273;23;20488;-95
2021/11/07 16:37:11;;;;;;;92.70;23.37;;;;;;;;;;6252480;23;20430;-95
2021/11/07 16:39:41;;;;;;;87.20;24.97;;;;;;;;;;6247237;23;20441;-92
2021/11/07 16:42:11;;;;;;;99.63;27.70;;;;;;;;;;6250908;23;20416;-93
2021/11/07 16:44:39;;;;;;;97.23;25.97;;;;;;;;;;6249490;23;20529;-92
2021/11/07 16:47:09;;;;;;;89.77;27.33;;;;;;;;;;6251055;23;20465;-93
2021/11/07 16:49:37;;;;;;;98.80;29.40;;;;;;;;;;6252374;23;20413;-94
2021/11/07 16:52:11;;;;;;;97.37;26.33;;;;;;;;;;6252885;23;20464;-94
2021/11/07 16:54:40;;;;;;;97.23;27.60;;;;;;;;;;6251870;23;20426;-92
2021/11/07 16:57:06;;;;;;;97.60;25.97;;;;;;;;;;6251370;23;20497;-92
2021/11/07 16:59:39;;;;;;;97.43;27.10;;;;;;;;;;6261490;23;20398;-96
2021/11/07 17:02:10;;;;;;;99.90;29.90;;;;;;;;;;6264482;22;20413;-95
2021/11/07 17:04:41;;;;;;;90.40;25.63;;;;;;;;;;6252300;23;20449;-93
2021/11/07 17:07:18;;;;;;;91.03;23.47;;;;;;;;;;6251632;23;20414;-94
2021/11/07 17:09:47;;;;;;;88.13;23.60;;;;;;;;;;6251698;23;21216;-94
2021/11/07 17:12:17;;;;;;;87.57;24.30;;;;;;;;;;6252118;23;20410;-94
2021/11/07 17:14:46;;;;;;;90.60;27.20;;;;;;;;;;6251966;23;20402;-93
2021/11/07 17:17:15;;;;;;;91.50;25.93;;;;;;;;;;6252480;23;20473;-94
2021/11/07 17:19:50;;;;;;;97.03;25.10;;;;;;;;;;6252464;23;20448;-96
2021/11/07 17:22:23;;;;;;;91.50;25.50;;;;;;;;;;6251974;23;20405;-95
2021/11/07 17:24:53;;;;;;;95.53;26.67;;;;;;;;;;6250036;23;20860;-94
2021/11/07 17:27:30;;;;;;;94.17;25.83;;;;;;;;;;6251015;23;20452;-96
2021/11/07 17:30:04;;;;;;;93.87;25.77;;;;;;;;;;6250059;23;20504;-92
2021/11/07 17:32:34;;;;;;;99.97;28.30;;;;;;;;;;6249749;23;20541;-92
2021/11/07 17:35:06;;;;;;;90.60;24.53;;;;;;;;;;6251772;23;20402;-92
2021/11/07 17:37:38;;;;;;;90.70;25.00;;;;;;;;;;6252276;23;20437;-91
2021/11/07 17:40:24;;;;;;;100.20;27.57;;;;;;;;;;6250281;23;20441;-92
2021/11/07 17:56:32;;;;;;;94.60;25.40;;;;;;;;;;6250712;23;20416;-91
2021/11/07 17:58:59;;;;;;;95.00;24.10;;;;;;;;;;6252000;23;20426;-91
2021/11/07 18:01:25;;;;;;;99.20;22.97;;;;;;;;;;6251542;23;20405;-91
2021/11/07 18:03:54;;;;;;;96.60;22.87;;;;;;;;;;6253383;23;20417;-92
2021/11/07 18:06:22;;;;;;;88.27;22.17;;;;;;;;;;6253974;23;20398;-92
2021/11/07 18:08:54;;;;;;;88.93;24.70;;;;;;;;;;6253057;23;20437;-92
2021/11/07 18:11:20;;;;;;;91.93;24.83;;;;;;;;;;6246706;23;20409;-92
2021/11/07 18:13:47;;;;;;;92.10;22.90;;;;;;;;;;6246634;23;20769;-93
2021/11/07 18:16:14;;;;;;;91.60;23.00;;;;;;;;;;6250790;23;20870;-91
2021/11/07 18:18:42;;;;;;;97.37;24.87;;;;;;;;;;6251682;23;20420;-92
2021/11/07 18:21:09;;;;;;;89.37;24.60;;;;;;;;;;6253162;23;20416;-92
2021/11/07 18:23:39;;;;;;;87.50;23.70;;;;;;;;;;6254091;23;20420;-92
2021/11/07 18:26:06;;;;;;;96.43;24.97;;;;;;;;;;6254507;23;20452;-95
2021/11/07 18:28:33;;;;;;;92.10;24.03;;;;;;;;;;6253755;23;20428;-93
2021/11/07 18:30:59;;;;;;;90.30;26.30;;;;;;;;;;6253463;23;20406;-92
2021/11/07 18:33:26;;;;;;;99.37;25.23;;;;;;;;;;6253801;23;20453;-93
2021/11/07 18:35:53;;;;;;;97.20;26.23;;;;;;;;;;6252802;23;20412;-94
2021/11/07 18:38:21;;;;;;;98.13;26.63;;;;;;;;;;6252514;23;20414;-94
2021/11/07 18:40:50;;;;;;;97.10;27.63;;;;;;;;;;6250419;23;20476;-94
2021/11/07 18:43:17;;;;;;;98.00;26.37;;;;;;;;;;6250829;23;21008;-93
2021/11/07 18:45:44;;;;;;;99.10;26.10;;;;;;;;;;6254141;23;20409;-94
2021/11/07 18:48:10;;;;;;;96.17;26.33;;;;;;;;;;6253978;23;20401;-93
2021/11/07 18:50:37;;;;;;;91.90;24.33;;;;;;;;;;6252009;23;20938;-94
2021/11/07 18:53:04;;;;;;;89.30;24.17;;;;;;;;;;6251908;23;20441;-93
2021/11/07 18:55:32;;;;;;;85.57;22.70;;;;;;;;;;6251112;23;20406;-93
2021/11/07 18:58:00;;;;;;;95.97;24.93;;;;;;;;;;6250770;23;20406;-93
2021/11/07 19:00:28;;;;;;;94.00;23.60;;;;;;;;;;6251635;23;20398;-94